Time;durP1;ratioP1;P1;durP2;ratioP2;P2;SDS_P1;SDS_P2;PMS_P1;PMS_P2;Temp;Humidity;BMP_temperature;BMP_pressure;BME280_temperature;BME280_humidity;BME280_pressure;Samples;Min_cycle;Max_cycle;Signal;HPM_P1;HPM_P2
2022/05/31 00:00:46;;;;;;;11.48;5.20;;;;;;;9.72;61.15;100663.70;1694181;83;27323;-69
2022/05/31 00:03:12;;;;;;;10.72;4.78;;;;;;;9.70;61.27;100664.69;1685871;83;98710;-69
2022/05/31 00:05:40;;;;;;;7.40;4.70;;;;;;;9.67;61.39;100660.80;1691609;82;25881;-69
2022/05/31 00:08:06;;;;;;;11.25;5.00;;;;;;;9.64;61.47;100656.44;1690623;82;98587;-69
2022/05/31 00:10:33;;;;;;;8.83;4.75;;;;;;;9.64;61.55;100655.56;1693777;83;25733;-68
2022/05/31 00:13:01;;;;;;;12.95;5.45;;;;;;;9.61;61.63;100652.55;1682346;83;29597;-69
2022/05/31 00:15:30;;;;;;;14.85;6.37;;;;;;;9.60;61.69;100659.30;1692414;83;98672;-68
2022/05/31 00:17:56;;;;;;;8.10;4.92;;;;;;;9.58;61.79;100659.82;1697557;83;25860;-67
2022/05/31 00:20:24;;;;;;;7.65;4.75;;;;;;;9.56;61.88;100665.70;1649158;84;98729;-68
2022/05/31 00:22:52;;;;;;;13.70;5.60;;;;;;;9.54;61.99;100663.55;1693745;83;25721;-64
2022/05/31 00:25:21;;;;;;;9.30;5.42;;;;;;;9.52;62.07;100662.73;1695209;81;28249;-64
2022/05/31 00:27:47;;;;;;;10.70;5.20;;;;;;;9.50;62.09;100657.91;1712117;81;97643;-62
2022/05/31 00:30:16;;;;;;;9.45;5.33;;;;;;;9.48;62.12;100661.11;1714499;82;25912;-62
2022/05/31 00:32:48;;;;;;;9.48;5.55;;;;;;;9.44;62.26;100664.36;1711418;82;98806;-62
2022/05/31 00:35:22;;;;;;;14.33;6.10;;;;;;;9.41;62.32;100665.36;1719802;82;26477;-64
2022/05/31 00:37:49;;;;;;;10.80;6.08;;;;;;;9.38;62.43;100664.14;1711726;82;27388;-62
2022/05/31 00:40:21;;;;;;;7.20;4.92;;;;;;;9.35;62.43;100672.27;1714763;82;98732;-62
2022/05/31 00:42:55;;;;;;;9.10;5.53;;;;;;;9.31;62.58;100668.44;1717098;82;26554;-62
2022/05/31 00:45:35;;;;;;;11.30;5.92;;;;;;;9.28;62.70;100669.42;1720299;82;98671;-62
2022/05/31 00:48:06;;;;;;;10.80;6.10;;;;;;;9.24;62.75;100665.59;1713384;81;25834;-62
2022/05/31 00:50:37;;;;;;;9.53;5.83;;;;;;;9.22;62.84;100662.09;1716394;82;98815;-62
2022/05/31 00:53:09;;;;;;;9.35;6.22;;;;;;;9.16;62.93;100662.33;1719511;81;25788;-62
2022/05/31 00:55:50;;;;;;;9.45;5.58;;;;;;;9.16;63.07;100667.20;1711469;82;25871;-62
2022/05/31 00:58:30;;;;;;;11.08;6.00;;;;;;;9.15;63.08;100673.48;1715356;82;98451;-64
2022/05/31 01:01:04;;;;;;;11.60;6.00;;;;;;;9.10;63.22;100676.33;1670362;83;25708;-63
2022/05/31 01:03:33;;;;;;;12.28;6.97;;;;;;;9.08;63.24;100679.98;1713730;82;98106;-63
2022/05/31 01:05:59;;;;;;;10.13;5.92;;;;;;;9.06;63.38;100684.52;1719952;81;26566;-63
2022/05/31 01:08:26;;;;;;;10.90;6.28;;;;;;;9.04;63.51;100687.25;1721657;82;98974;-63
2022/05/31 01:10:55;;;;;;;11.80;5.90;;;;;;;9.03;63.57;100687.30;1714803;82;25851;-63
2022/05/31 01:13:22;;;;;;;7.80;5.15;;;;;;;9.01;63.69;100682.48;1713786;81;25856;-63
2022/05/31 01:15:51;;;;;;;11.83;6.28;;;;;;;9.00;63.72;100683.41;1714600;82;98313;-61
2022/05/31 01:18:17;;;;;;;10.70;6.00;;;;;;;9.00;63.85;100684.74;1719671;82;25810;-64
2022/05/31 01:20:44;;;;;;;9.78;6.10;;;;;;;9.00;63.92;100685.61;1716979;82;98875;-61
2022/05/31 01:23:15;;;;;;;9.83;5.67;;;;;;;9.00;64.04;100686.08;1721425;82;25905;-64
2022/05/31 01:26:09;;;;;;;8.43;5.20;;;;;;;9.00;64.14;100687.41;1718427;80;26194;-62
2022/05/31 01:28:50;;;;;;;8.40;5.55;;;;;;;8.98;64.17;100687.47;1720310;82;98283;-63
2022/05/31 01:31:33;;;;;;;12.40;5.67;;;;;;;8.98;64.29;100691.95;1711160;82;25767;-63
2022/05/31 01:34:14;;;;;;;11.97;5.95;;;;;;;8.97;64.36;100688.86;1713560;82;98609;-63
2022/05/31 01:36:49;;;;;;;7.72;5.53;;;;;;;8.94;64.45;100692.52;1727066;82;26321;-66
2022/05/31 01:39:33;;;;;;;8.85;5.40;;;;;;;8.94;64.43;100692.98;1714538;82;98619;-63
2022/05/31 01:42:21;;;;;;;6.92;5.35;;;;;;;8.94;64.66;100692.98;1719640;82;29573;-63
2022/05/31 01:44:52;;;;;;;7.47;5.00;;;;;;;8.91;64.71;100691.75;1712166;81;98876;-63
2022/05/31 01:47:20;;;;;;;8.18;4.97;;;;;;;8.90;64.79;100698.91;1716092;81;25726;-63
2022/05/31 01:49:50;;;;;;;11.15;5.50;;;;;;;8.91;64.93;100701.11;1719013;81;25759;-63
2022/05/31 01:52:17;;;;;;;7.42;5.28;;;;;;;8.90;64.84;100704.71;1713038;82;98711;-62
2022/05/31 01:54:46;;;;;;;6.92;4.85;;;;;;;8.89;64.96;100701.63;1716572;81;27524;-63
2022/05/31 01:57:15;;;;;;;8.65;5.22;;;;;;;8.89;65.06;100702.97;1718294;81;98631;-62
2022/05/31 01:59:49;;;;;;;8.88;5.95;;;;;;;8.87;65.07;100700.81;1714421;82;25779;-62
2022/05/31 02:02:18;;;;;;;10.98;5.33;;;;;;;8.82;65.07;100699.64;1719984;82;26522;-63
2022/05/31 02:04:46;;;;;;;13.80;5.25;;;;;;;8.79;65.24;100702.41;1719463;82;99059;-62
2022/05/31 02:07:17;;;;;;;8.65;5.03;;;;;;;8.76;65.36;100704.73;1714211;82;27319;-62
2022/05/31 02:09:47;;;;;;;9.10;5.87;;;;;;;8.75;65.42;100708.33;1715853;82;98548;-64
2022/05/31 02:12:17;;;;;;;14.43;5.87;;;;;;;8.73;65.39;100703.50;1715207;82;25851;-62
2022/05/31 02:14:44;;;;;;;11.50;5.77;;;;;;;8.71;65.43;100714.70;1718063;82;98994;-62
2022/05/31 02:17:11;;;;;;;10.93;6.55;;;;;;;8.67;65.56;100713.53;1724797;82;25857;-62
2022/05/31 02:19:38;;;;;;;10.60;6.50;;;;;;;8.63;65.58;100715.44;1713369;82;27488;-64
2022/05/31 02:22:12;;;;;;;13.48;6.45;;;;;;;8.60;65.70;100716.00;1720526;81;98728;-62
2022/05/31 02:24:39;;;;;;;11.60;5.72;;;;;;;8.57;65.72;100720.98;1718675;82;25793;-62
2022/05/31 02:27:09;;;;;;;8.58;5.95;;;;;;;8.50;65.77;100724.79;1721532;80;98793;-62
2022/05/31 02:29:38;;;;;;;10.78;6.50;;;;;;;8.45;65.91;100726.28;1735940;80;25841;-62
2022/05/31 02:32:10;;;;;;;11.68;5.42;;;;;;;8.41;66.06;100725.09;1730770;80;27563;-62
2022/05/31 02:34:41;;;;;;;15.88;6.10;;;;;;;8.38;66.11;100732.75;1698161;81;98955;-62
2022/05/31 02:37:09;;;;;;;10.75;6.80;;;;;;;8.37;66.25;100723.45;1730352;80;25709;-62
2022/05/31 02:39:36;;;;;;;13.32;6.37;;;;;;;8.35;66.30;100729.30;1727683;80;98872;-63
2022/05/31 02:42:03;;;;;;;13.62;6.50;;;;;;;8.35;66.42;100725.30;1736349;80;25675;-63
2022/05/31 02:44:30;;;;;;;13.65;6.10;;;;;;;8.31;66.43;100727.16;1733755;80;98875;-62
2022/05/31 02:46:56;;;;;;;9.48;6.08;;;;;;;8.29;66.48;100725.00;1731477;80;26085;-62
2022/05/31 02:49:22;;;;;;;9.30;5.90;;;;;;;8.24;66.60;100725.61;1727991;80;25943;-62
2022/05/31 02:51:49;;;;;;;9.40;5.65;;;;;;;8.23;66.67;100726.53;1734692;80;98520;-62
2022/05/31 02:54:18;;;;;;;11.35;6.28;;;;;;;8.22;66.77;100726.13;1729336;80;26143;-62
2022/05/31 02:56:46;;;;;;;9.55;5.58;;;;;;;8.22;66.70;100730.59;1734945;80;98856;-62
2022/05/31 02:59:14;;;;;;;9.75;6.22;;;;;;;8.17;66.81;100730.73;1699298;81;25792;-63
2022/05/31 03:01:42;;;;;;;10.32;6.00;;;;;;;8.13;66.86;100723.29;1731666;80;25786;-62
2022/05/31 03:04:13;;;;;;;10.70;6.33;;;;;;;8.15;67.05;100733.92;1730010;80;98712;-62
2022/05/31 03:06:40;;;;;;;9.78;5.62;;;;;;;8.14;67.16;100738.84;1732714;80;25854;-64
2022/05/31 03:09:07;;;;;;;9.25;5.60;;;;;;;8.13;67.21;100735.30;1733528;80;98632;-64
2022/05/31 03:11:48;;;;;;;12.55;5.55;;;;;;;8.14;67.36;100738.84;1735213;80;25798;-64
2022/05/31 03:14:27;;;;;;;10.17;5.83;;;;;;;8.15;67.39;100744.14;1733917;80;25798;-64
2022/05/31 03:17:10;;;;;;;10.93;5.90;;;;;;;8.15;67.55;100740.13;1736615;80;98848;-63
2022/05/31 03:19:42;;;;;;;9.78;5.75;;;;;;;8.15;67.58;100732.13;1733217;80;26596;-62
2022/05/31 03:22:13;;;;;;;10.03;5.80;;;;;;;8.18;67.76;100735.16;1733052;80;98831;-61
2022/05/31 03:24:48;;;;;;;8.15;5.58;;;;;;;8.20;67.73;100748.45;1730571;80;25787;-64
2022/05/31 03:27:15;;;;;;;13.15;6.05;;;;;;;8.19;67.84;100754.72;1735276;80;98806;-64
2022/05/31 03:29:48;;;;;;;9.78;5.80;;;;;;;8.21;67.87;100752.88;1732044;80;26465;-64
2022/05/31 03:32:15;;;;;;;9.85;6.15;;;;;;;8.21;67.91;100751.08;1697526;82;25865;-62
2022/05/31 03:34:43;;;;;;;10.08;5.80;;;;;;;8.23;67.92;100758.58;1684858;83;99019;-63
2022/05/31 03:37:11;;;;;;;8.88;5.75;;;;;;;8.23;68.02;100756.38;1666317;83;25893;-62
2022/05/31 03:39:37;;;;;;;11.20;5.90;;;;;;;8.25;68.07;100755.86;1680276;82;99156;-63
2022/05/31 03:42:07;;;;;;;13.68;6.58;;;;;;;8.26;68.20;100755.81;1698563;82;25779;-63
2022/05/31 03:44:34;;;;;;;12.23;6.73;;;;;;;8.28;68.18;100754.42;1669796;82;25846;-62
2022/05/31 03:47:03;;;;;;;12.55;6.33;;;;;;;8.29;68.31;100762.85;1701025;82;98519;-64
2022/05/31 03:49:30;;;;;;;14.20;5.87;;;;;;;8.30;68.36;100760.13;1675735;83;25779;-63
2022/05/31 03:51:58;;;;;;;10.95;6.28;;;;;;;8.30;68.36;100762.80;1660846;83;98708;-62
2022/05/31 03:54:27;;;;;;;13.18;5.90;;;;;;;8.30;68.42;100761.47;1679127;82;26519;-64
2022/05/31 03:56:55;;;;;;;11.30;6.25;;;;;;;8.30;68.44;100759.26;1693224;82;98883;-63
2022/05/31 03:59:23;;;;;;;11.90;6.55;;;;;;;8.32;68.54;100760.08;1700199;82;30768;-62
2022/05/31 04:01:50;;;;;;;12.13;6.35;;;;;;;8.34;68.62;100759.14;1686105;83;25783;-65
2022/05/31 04:04:17;;;;;;;9.60;6.03;;;;;;;8.37;68.70;100767.52;1658666;83;98647;-64
2022/05/31 04:06:46;;;;;;;13.32;6.20;;;;;;;8.40;68.74;100762.95;1658629;83;25785;-62
2022/05/31 04:09:15;;;;;;;14.35;6.60;;;;;;;8.44;68.75;100764.59;1684384;82;98938;-62
2022/05/31 04:11:42;;;;;;;16.07;6.05;;;;;;;8.48;68.74;100766.70;1690703;82;27455;-63
2022/05/31 04:14:08;;;;;;;12.55;6.40;;;;;;;8.52;68.92;100763.02;1684725;82;25818;-63
2022/05/31 04:16:35;;;;;;;9.00;5.53;;;;;;;8.57;68.94;100773.08;1682976;83;98930;-63
2022/05/31 04:19:03;;;;;;;11.60;6.17;;;;;;;8.59;68.88;100767.69;1697735;82;25869;-63
2022/05/31 04:21:29;;;;;;;13.00;5.92;;;;;;;8.60;68.90;100765.43;1691441;82;98803;-64
2022/05/31 04:23:59;;;;;;;11.25;5.75;;;;;;;8.61;68.98;100769.84;1685863;82;27487;-62
2022/05/31 04:26:39;;;;;;;10.70;6.17;;;;;;;8.64;69.11;100766.61;1687024;83;25759;-62
2022/05/31 04:29:05;;;;;;;8.80;5.78;;;;;;;8.67;69.14;100775.86;1686884;82;97750;-62
2022/05/31 04:31:32;;;;;;;10.45;6.08;;;;;;;8.72;69.21;100775.25;1669299;83;26517;-62
2022/05/31 04:33:58;;;;;;;11.68;5.62;;;;;;;8.78;69.27;100778.17;1689734;82;98758;-63
2022/05/31 04:36:24;;;;;;;12.73;6.22;;;;;;;8.84;69.29;100782.44;1684900;82;27405;-63
2022/05/31 04:38:50;;;;;;;11.75;6.08;;;;;;;8.90;69.29;100781.77;1676413;82;98870;-63
2022/05/31 04:41:28;;;;;;;8.98;5.83;;;;;;;8.95;69.34;100782.48;1680894;82;26011;-63
2022/05/31 04:43:56;;;;;;;11.57;5.85;;;;;;;9.00;69.37;100776.98;1674636;83;26300;-64
2022/05/31 04:46:27;;;;;;;10.60;6.42;;;;;;;9.07;69.45;100776.70;1692443;82;98727;-63
2022/05/31 04:48:55;;;;;;;13.45;7.35;;;;;;;9.14;69.42;100775.16;1684742;83;27378;-63
2022/05/31 04:51:22;;;;;;;10.55;6.28;;;;;;;9.20;69.43;100778.95;1699038;82;97973;-63
2022/05/31 04:53:49;;;;;;;23.90;6.25;;;;;;;9.23;69.43;100774.37;1698809;82;25764;-63
2022/05/31 04:56:19;;;;;;;15.90;7.12;;;;;;;9.28;69.48;100777.75;1686735;83;25768;-63
2022/05/31 04:58:47;;;;;;;13.32;6.83;;;;;;;9.33;69.50;100777.13;1664979;83;98817;-63
2022/05/31 05:01:13;;;;;;;12.75;5.83;;;;;;;9.41;69.53;100785.74;1686282;82;29508;-63
2022/05/31 05:03:41;;;;;;;8.95;5.92;;;;;;;9.46;69.51;100778.89;1694345;82;98732;-62
2022/05/31 05:06:10;;;;;;;15.43;5.58;;;;;;;9.54;69.51;100790.64;1701535;82;25892;-62
2022/05/31 05:08:37;;;;;;;9.68;5.83;;;;;;;9.60;69.53;100781.05;1694140;82;26606;-62
2022/05/31 05:11:09;;;;;;;11.38;5.50;;;;;;;9.67;69.56;100774.55;1703904;82;98831;-62
2022/05/31 05:13:35;;;;;;;;;;;;;;;9.74;69.55;100778.27;1705585;82;27528;-62
2022/05/31 05:16:07;;;;;;;12.68;5.80;;;;;;;9.83;69.59;100785.55;1694701;82;84495;-62
2022/05/31 05:18:34;;;;;;;10.58;5.22;;;;;;;9.89;69.58;100780.83;1670279;83;25949;-62
2022/05/31 05:21:03;;;;;;;13.03;5.72;;;;;;;9.97;69.53;100781.88;1683628;82;98091;-65
2022/05/31 05:23:29;;;;;;;9.90;5.53;;;;;;;10.04;69.46;100784.25;1688015;83;25822;-62
2022/05/31 05:25:57;;;;;;;9.95;4.70;;;;;;;10.11;69.48;100784.02;1682271;82;27503;-62
2022/05/31 05:31:30;;;;;;;5.30;3.90;;;;;;;10.31;69.48;100789.02;1680716;84;25729;-63
2022/05/31 05:33:57;;;;;;;9.70;4.47;;;;;;;10.40;69.41;100790.47;1676923;84;98626;-63
2022/05/31 05:36:24;;;;;;;8.98;4.60;;;;;;;10.46;69.37;100791.99;1678997;84;25791;-63
2022/05/31 05:38:55;;;;;;;14.45;4.15;;;;;;;10.53;69.39;100784.11;1680488;84;99211;-63
2022/05/31 05:41:23;;;;;;;5.50;3.65;;;;;;;10.59;69.30;100781.17;1688768;83;26631;-62
2022/05/31 05:43:49;;;;;;;5.40;3.92;;;;;;;10.63;69.29;100783.67;1690482;83;25791;-62
2022/05/31 05:46:23;;;;;;;6.97;4.25;;;;;;;10.69;69.26;100778.05;1684721;84;98673;-62
2022/05/31 05:48:50;;;;;;;6.42;4.10;;;;;;;10.77;69.23;100779.07;1682155;83;25703;-63
2022/05/31 05:51:26;;;;;;;5.90;3.77;;;;;;;10.84;69.17;100783.23;1675046;84;99004;-63
2022/05/31 05:53:54;;;;;;;8.00;3.80;;;;;;;10.91;69.12;100782.05;1694363;83;25858;-63
2022/05/31 05:56:24;;;;;;;6.10;3.72;;;;;;;10.99;69.06;100788.42;1683228;83;25716;-63
2022/05/31 05:58:50;;;;;;;8.38;3.65;;;;;;;11.08;69.02;100783.13;1689630;83;98806;-62
2022/05/31 06:01:50;;;;;;;9.15;3.25;;;;;;;11.14;68.93;100783.73;1677889;84;25887;-62
2022/05/31 06:04:36;;;;;;;7.05;3.58;;;;;;;11.20;68.93;100782.13;1677297;83;98680;-62
2022/05/31 06:07:37;;;;;;;6.45;3.35;;;;;;;11.31;68.87;100789.23;1695620;83;25690;-63
2022/05/31 06:10:14;;;;;;;8.30;2.80;;;;;;;11.41;68.77;100786.15;1706589;81;98753;-62
2022/05/31 06:12:45;;;;;;;5.47;3.22;;;;;;;11.50;68.67;100786.61;1725254;81;26030;-62
2022/05/31 06:15:15;;;;;;;;;;;;;;;11.58;68.60;100784.92;1731823;81;98967;-62
2022/05/31 06:17:45;;;;;;;7.47;3.92;;;;;;;11.66;68.49;100786.32;1680664;83;27493;-63
2022/05/31 06:20:13;;;;;;;5.58;3.62;;;;;;;11.73;68.50;100786.04;1727026;81;27205;-64
2022/05/31 06:22:42;;;;;;;7.28;4.17;;;;;;;11.83;68.36;100790.95;1724410;81;98702;-62
2022/05/31 06:25:13;;;;;;;5.15;3.72;;;;;;;11.91;68.29;100789.25;1727804;81;26837;-63
2022/05/31 06:27:39;;;;;;;11.30;3.58;;;;;;;11.95;68.15;100789.52;1719449;80;98741;-62
2022/05/31 06:30:11;;;;;;;5.95;2.58;;;;;;;12.01;68.13;100794.13;1726343;81;27478;-62
2022/05/31 06:32:38;;;;;;;;;;;;;;;12.10;67.96;100791.95;1719917;81;25845;-62
2022/05/31 06:35:05;;;;;;;4.75;2.33;;;;;;;12.16;67.90;100799.25;1746459;80;83995;-63
2022/05/31 06:37:33;;;;;;;5.95;2.12;;;;;;;12.22;67.75;100794.05;1751710;80;25866;-63
2022/05/31 06:39:59;;;;;;;2.77;2.45;;;;;;;12.30;67.55;100798.12;1749274;80;98710;-63
2022/05/31 06:42:26;;;;;;;3.75;2.20;;;;;;;12.39;67.40;100794.59;1745482;80;29444;-63
2022/05/31 06:44:53;;;;;;;1.90;1.80;;;;;;;12.47;67.10;100794.62;1748509;80;98795;-63
2022/05/31 06:47:19;;;;;;;6.87;1.95;;;;;;;12.53;66.92;100799.69;1747684;80;25804;-63
2022/05/31 06:49:45;;;;;;;5.58;1.82;;;;;;;12.59;66.62;100799.39;1752834;80;26691;-63
2022/05/31 06:57:47;;;;;;;4.53;2.40;;;;;;;12.82;66.11;100805.45;1749218;80;99040;-62
2022/05/31 07:00:19;;;;;;;13.43;1.92;;;;;;;12.92;65.83;100806.26;1747900;80;25823;-62
2022/05/31 07:02:46;;;;;;;3.10;1.92;;;;;;;13.02;65.61;100803.94;1718143;82;26529;-63
2022/05/31 07:05:14;;;;;;;7.00;2.10;;;;;;;13.11;65.41;100794.05;1703385;83;98617;-62
2022/05/31 07:07:42;;;;;;;6.30;2.20;;;;;;;13.21;65.27;100794.00;1704821;82;27445;-62
2022/05/31 07:10:09;;;;;;;4.50;2.05;;;;;;;13.38;65.16;100801.20;1733353;80;98815;-63
2022/05/31 07:12:35;;;;;;;2.98;1.60;;;;;;;13.52;64.96;100796.44;1750539;80;25701;-62
2022/05/31 07:15:05;;;;;;;4.12;1.92;;;;;;;13.62;64.58;100807.11;1749171;80;98844;-63
2022/05/31 07:17:31;;;;;;;5.37;1.72;;;;;;;13.68;64.20;100812.66;1747012;80;25840;-63
2022/05/31 07:19:59;;;;;;;9.58;1.60;;;;;;;13.76;62.44;100801.86;1759070;79;27515;-62
2022/05/31 07:22:26;;;;;;;5.67;2.00;;;;;;;13.84;63.67;100809.53;1750165;79;98701;-62
2022/05/31 07:24:54;;;;;;;8.03;1.65;;;;;;;13.86;63.11;100809.84;1757006;80;26283;-63
2022/05/31 07:27:20;;;;;;;4.55;2.20;;;;;;;13.89;63.03;100804.28;1760601;79;98935;-63
2022/05/31 07:29:45;;;;;;;9.50;2.42;;;;;;;13.94;62.72;100814.33;1758727;80;25767;-63
2022/05/31 07:32:11;;;;;;;3.85;1.85;;;;;;;13.92;62.54;100811.33;1738836;80;27481;-63
2022/05/31 07:34:37;;;;;;;8.20;2.22;;;;;;;13.92;62.10;100807.28;1733800;80;98849;-62
2022/05/31 07:37:05;;;;;;;5.55;2.27;;;;;;;13.94;61.78;100807.59;1739171;81;25759;-63
2022/05/31 07:39:31;;;;;;;9.48;2.52;;;;;;;13.97;60.75;100819.55;1742629;80;98917;-63
2022/05/31 07:42:02;;;;;;;4.60;1.80;;;;;;;13.96;60.84;100814.25;1749586;80;25999;-63
2022/05/31 07:44:29;;;;;;;7.85;2.33;;;;;;;13.98;60.69;100806.95;1740513;81;27460;-63
2022/05/31 07:46:56;;;;;;;12.85;2.30;;;;;;;14.14;60.46;100808.33;1736796;81;98866;-63
2022/05/31 07:49:24;;;;;;;7.85;2.08;;;;;;;14.19;60.07;100811.16;1736550;80;25810;-63
2022/05/31 07:51:51;;;;;;;10.05;2.00;;;;;;;14.32;59.83;100803.73;1732305;81;98608;-63
2022/05/31 07:54:18;;;;;;;5.10;2.10;;;;;;;14.45;59.42;100820.99;1754553;80;25771;-63
2022/05/31 07:56:48;;;;;;;14.98;1.92;;;;;;;14.51;58.80;100821.52;1750437;79;27417;-63
2022/05/31 07:59:17;;;;;;;11.40;2.42;;;;;;;14.51;58.06;100821.99;1749828;80;98756;-62
2022/05/31 08:01:43;;;;;;;27.27;3.85;;;;;;;14.52;58.00;100819.21;1713183;82;25736;-63
2022/05/31 08:04:09;;;;;;;9.83;2.08;;;;;;;14.43;57.79;100790.55;1764677;79;98859;-63
2022/05/31 08:06:35;;;;;;;7.97;1.80;;;;;;;14.54;57.28;100810.55;1755053;79;25786;-63
2022/05/31 08:09:04;;;;;;;6.65;1.90;;;;;;;14.52;57.26;100823.25;1753277;80;98869;-63
2022/05/31 08:11:36;;;;;;;;;;;;;;;14.59;56.61;100827.83;1780963;79;25845;-63
2022/05/31 08:14:03;;;;;;;5.55;1.65;;;;;;;14.52;56.16;100813.81;1788207;78;25807;-62
2022/05/31 08:16:31;;;;;;;6.60;2.10;;;;;;;14.53;56.04;100802.55;1785952;78;98704;-63
2022/05/31 08:19:00;;;;;;;5.25;1.75;;;;;;;14.54;55.62;100822.69;1749912;80;26405;-63
2022/05/31 08:21:30;;;;;;;5.78;1.90;;;;;;;14.56;55.71;100811.34;1790842;78;98951;-63
2022/05/31 08:24:00;;;;;;;6.00;2.27;;;;;;;14.65;55.50;100813.12;1785432;78;30951;-63
2022/05/31 08:26:27;;;;;;;5.83;2.37;;;;;;;14.69;55.50;100805.23;1787092;79;25844;-63
2022/05/31 08:28:56;;;;;;;5.05;2.10;;;;;;;14.76;55.56;100796.70;1784047;78;97787;-63
2022/05/31 08:31:31;;;;;;;3.62;1.95;;;;;;;14.89;55.44;100797.72;1755049;80;25759;-63
2022/05/31 08:33:58;;;;;;;10.23;2.10;;;;;;;14.99;54.65;100800.75;1745067;80;99054;-63
2022/05/31 08:36:25;;;;;;;9.73;1.50;;;;;;;14.99;54.45;100794.00;1791353;78;25887;-63
2022/05/31 08:38:54;;;;;;;4.00;1.72;;;;;;;15.08;54.32;100793.93;1785356;77;25829;-62
2022/05/31 08:41:35;;;;;;;3.33;2.08;;;;;;;15.18;54.19;100798.69;1755705;80;98853;-63
2022/05/31 08:44:09;;;;;;;7.50;2.12;;;;;;;15.33;54.18;100790.63;1789255;78;25773;-63
2022/05/31 08:46:52;;;;;;;6.97;2.12;;;;;;;15.32;53.67;100793.81;1768727;78;98659;-63
2022/05/31 08:51:52;;;;;;;8.98;2.10;;;;;;;15.34;53.71;100800.47;1789501;79;25743;-62
2022/05/31 08:52:08;;;;;;;4.78;2.20;;;;;;;15.42;53.62;100796.82;1768980;79;98757;-62
2022/05/31 08:57:49;;;;;;;5.12;2.62;;;;;;;15.49;52.92;100795.48;1785302;78;99225;-63
2022/05/31 09:00:20;;;;;;;3.83;2.20;;;;;;;15.42;52.69;100788.23;1785061;79;27467;-62
2022/05/31 09:03:12;;;;;;;2.05;1.85;;;;;;;15.43;52.60;100795.86;1754759;80;25875;-62
2022/05/31 09:05:47;;;;;;;2.40;1.95;;;;;;;15.37;51.92;100791.70;1787867;79;101215;-62
2022/05/31 09:08:22;;;;;;;7.45;2.08;;;;;;;15.37;52.02;100789.48;1776497;79;25776;-62
2022/05/31 09:11:08;;;;;;;3.10;2.27;;;;;;;15.51;52.21;100789.50;1761408;79;98723;-62
2022/05/31 09:13:58;;;;;;;9.18;2.70;;;;;;;15.67;52.24;100783.55;1761397;80;27389;-62
2022/05/31 09:16:47;;;;;;;13.72;2.42;;;;;;;15.76;52.07;100788.38;1660153;84;98832;-64
2022/05/31 09:19:27;;;;;;;10.13;2.20;;;;;;;15.95;52.08;100792.63;1656350;84;25849;-62
2022/05/31 09:21:56;;;;;;;4.62;2.70;;;;;;;16.06;51.39;100783.34;1673693;79;99133;-63
2022/05/31 09:24:24;;;;;;;6.83;2.42;;;;;;;16.04;50.90;100781.22;1763831;80;25762;-62
2022/05/31 09:27:12;;;;;;;11.45;2.15;;;;;;;16.10;50.62;100783.53;1719623;82;27477;-64
2022/05/31 09:30:05;;;;;;;6.08;1.72;;;;;;;16.22;50.03;100787.67;1758944;80;98663;-63
2022/05/31 09:32:59;;;;;;;9.78;3.27;;;;;;;16.42;50.53;100777.39;1762814;79;25726;-64
2022/05/31 09:35:40;;;;;;;5.50;2.70;;;;;;;16.56;49.41;100787.70;1717343;82;98681;-63
2022/05/31 09:38:24;;;;;;;2.62;1.77;;;;;;;16.65;49.12;100783.55;1709349;82;26446;-62
2022/05/31 09:41:06;;;;;;;4.62;1.98;;;;;;;16.57;48.74;100770.98;1758880;80;98736;-63
2022/05/31 09:43:50;;;;;;;3.52;1.62;;;;;;;16.55;48.99;100769.72;1763162;80;25700;-64
2022/05/31 09:46:38;;;;;;;9.70;1.90;;;;;;;16.65;48.51;100765.09;1762144;79;98893;-63
2022/05/31 09:49:28;;;;;;;9.25;2.12;;;;;;;16.89;48.57;100771.56;1718183;82;25775;-62
2022/05/31 09:51:55;;;;;;;4.67;1.80;;;;;;;17.10;48.15;100771.45;1715796;81;98885;-62
2022/05/31 09:57:22;;;;;;;10.65;2.70;;;;;;;17.37;48.24;100762.40;1713165;82;25911;-63
2022/05/31 10:00:07;;;;;;;16.15;2.12;;;;;;;17.50;47.90;100761.92;1760066;79;98713;-62
2022/05/31 10:02:37;;;;;;;7.72;1.82;;;;;;;17.57;47.23;100761.88;1757293;80;26347;-62
2022/05/31 10:05:21;;;;;;;8.93;1.70;;;;;;;17.49;47.41;100756.13;1756670;79;98617;-62
2022/05/31 10:07:48;;;;;;;7.72;2.58;;;;;;;17.55;47.51;100759.76;1753906;79;28567;-62
2022/05/31 10:10:31;;;;;;;2.40;1.65;;;;;;;17.77;46.88;100761.84;1773945;78;98662;-64
2022/05/31 10:13:07;;;;;;;5.55;1.87;;;;;;;17.77;46.67;100764.56;1792232;77;25732;-64
2022/05/31 10:15:48;;;;;;;4.37;1.80;;;;;;;17.70;45.94;100763.26;1786886;78;98772;-64
2022/05/31 10:18:31;;;;;;;6.03;1.95;;;;;;;17.82;46.18;100758.32;1758436;80;26190;-63
2022/05/31 10:21:04;;;;;;;3.22;1.62;;;;;;;18.04;46.34;100757.16;1756319;79;28263;-63
2022/05/31 10:23:36;;;;;;;6.15;1.92;;;;;;;18.23;46.15;100745.79;1753192;79;98740;-63
2022/05/31 10:26:05;;;;;;;7.03;2.02;;;;;;;18.27;45.97;100750.02;1752571;79;25686;-64
2022/05/31 10:28:45;;;;;;;10.53;2.10;;;;;;;18.22;45.68;100755.40;1749991;80;98754;-63
2022/05/31 10:31:34;;;;;;;4.35;1.70;;;;;;;17.95;45.23;100745.61;1749797;80;25840;-63
2022/05/31 10:34:09;;;;;;;5.55;1.47;;;;;;;17.88;45.31;100744.81;1748873;79;98988;-64
2022/05/31 10:36:50;;;;;;;8.93;2.30;;;;;;;17.83;44.90;100756.85;1723575;81;25857;-63
2022/05/31 10:39:25;;;;;;;5.33;1.80;;;;;;;17.74;44.24;100746.66;1723378;80;25849;-64
2022/05/31 10:41:55;;;;;;;3.52;1.90;;;;;;;17.78;44.43;100741.89;1758661;80;98623;-64
2022/05/31 10:44:33;;;;;;;6.87;1.70;;;;;;;17.92;44.63;100739.55;1720544;82;25759;-64
2022/05/31 10:47:12;;;;;;;8.88;1.60;;;;;;;18.25;44.68;100734.83;1716829;81;98654;-63
2022/05/31 10:49:41;;;;;;;6.47;1.57;;;;;;;18.51;44.18;100732.39;1752726;80;25898;-63
2022/05/31 10:52:25;;;;;;;5.37;1.50;;;;;;;18.70;43.72;100737.34;1753068;79;98900;-62
2022/05/31 10:55:03;;;;;;;5.28;1.57;;;;;;;18.90;43.95;100731.26;1723701;82;25827;-64
2022/05/31 10:57:53;;;;;;;5.40;1.42;;;;;;;19.13;43.33;100743.94;1721901;81;98929;-63
2022/05/31 11:00:43;;;;;;;6.75;1.62;;;;;;;19.10;39.90;100735.16;1750665;80;29671;-62
2022/05/31 11:03:31;;;;;;;6.87;2.05;;;;;;;19.17;42.47;100727.39;1754501;80;27109;-64
2022/05/31 11:06:51;;;;;;;2.98;1.55;;;;;;;19.25;42.19;100727.17;1746745;80;99343;-62
2022/05/31 11:13:07;;;;;;;1.98;1.27;;;;;;;19.41;41.60;100728.19;1758371;79;25831;-63
2022/05/31 11:15:57;;;;;;;8.33;1.32;;;;;;;19.23;41.32;100720.12;1722434;82;27405;-62
2022/05/31 11:19:04;;;;;;;2.15;1.30;;;;;;;19.24;41.71;100725.93;1726663;80;98372;-62
2022/05/31 11:21:47;;;;;;;5.50;1.40;;;;;;;19.19;41.71;100722.22;1736112;80;26354;-62
2022/05/31 11:24:46;;;;;;;5.70;1.50;;;;;;;19.03;41.38;100717.11;1751384;79;98907;-62
2022/05/31 11:27:54;;;;;;;4.42;1.00;;;;;;;18.97;41.46;100710.79;1731028;80;25839;-62
2022/05/31 11:30:46;;;;;;;7.00;1.45;;;;;;;19.14;41.44;100714.91;1752554;80;98579;-62
2022/05/31 11:33:56;;;;;;;9.18;1.75;;;;;;;19.36;41.14;100719.04;1756510;79;25936;-62
2022/05/31 11:36:39;;;;;;;4.28;1.47;;;;;;;19.29;40.80;100716.44;1758943;79;98564;-62
2022/05/31 11:39:35;;;;;;;6.55;1.80;;;;;;;19.34;41.19;100716.07;1741484;81;26804;-62
2022/05/31 11:42:22;;;;;;;3.37;1.75;;;;;;;19.45;41.02;100713.38;1752857;80;98581;-61
2022/05/31 11:45:13;;;;;;;3.42;1.60;;;;;;;19.67;41.07;100707.98;1751437;80;27438;-62
2022/05/31 11:47:54;;;;;;;3.40;1.32;;;;;;;19.95;40.59;100713.92;1749436;80;98762;-62
2022/05/31 11:50:55;;;;;;;2.62;1.47;;;;;;;20.17;40.32;100702.14;1751698;80;25754;-62
2022/05/31 11:53:48;;;;;;;2.62;1.42;;;;;;;20.13;40.27;100679.76;1760806;79;98680;-63
2022/05/31 11:56:34;;;;;;;2.47;1.17;;;;;;;20.13;40.27;100679.76;1745824;81;25650;-63
2022/05/31 11:59:26;;;;;;;3.65;1.92;;;;;;;20.40;40.08;100702.00;1723119;81;99242;-63
2022/05/31 12:01:58;;;;;;;2.08;1.15;;;;;;;20.47;40.47;100672.89;1751916;80;26042;-62
2022/05/31 12:04:47;;;;;;;5.72;1.60;;;;;;;20.75;40.09;100694.08;1723959;81;98901;-62
2022/05/31 12:07:24;;;;;;;5.83;2.30;;;;;;;20.44;39.79;100699.02;1738847;81;25850;-62
2022/05/31 12:10:15;;;;;;;4.58;1.77;;;;;;;20.18;40.11;100672.58;1719760;82;25828;-62
2022/05/31 12:12:44;;;;;;;1.95;1.52;;;;;;;20.47;40.21;100693.31;1735565;81;98643;-62